<?xml version="1.0" encoding="utf-8"?>
<gpx xmlns:xsi="http://www.w3.org/2001/XMLSchema-instance" xmlns:xsd="http://www.w3.org/2001/XMLSchema" version="1.1" creator="Shapelink.com" xmlns="http://www.topografix.com/GPX/1/1" xmlns:gpxtpx="http://www.garmin.com/xmlschemas/TrackPointExtension/v1">
  <metadata>
    <name>Cykling 4.01 km, 2015-07-11</name>
    <desc></desc>
    <author><name>Alexander Engvall</name></author> 
    <time>2015-07-11T13:59:09Z</time>
  </metadata>
  <trk>
    <name>Cykling 4.01 km, 2015-07-11</name>
    <trkseg>
      <trkpt lat="59.23746473425" lon="17.947082546004">
        <ele>25.8</ele>
        <time>2015-07-11T13:59:09Z</time>
      </trkpt>
      <trkpt lat="59.237398768697" lon="17.947228223426">
        <ele>25.6</ele>
        <time>2015-07-11T13:59:11Z</time>
      </trkpt>
      <trkpt lat="59.237363480898" lon="17.947305420725">
        <ele>26</ele>
        <time>2015-07-11T13:59:12Z</time>
      </trkpt>
      <trkpt lat="59.237329869479" lon="17.947393933589">
        <ele>26.4</ele>
        <time>2015-07-11T13:59:13Z</time>
      </trkpt>
      <trkpt lat="59.237287959979" lon="17.94749024162">
        <ele>26.8</ele>
        <time>2015-07-11T13:59:14Z</time>
      </trkpt>
      <trkpt lat="59.23724177571" lon="17.947559224657">
        <ele>26.8</ele>
        <time>2015-07-11T13:59:15Z</time>
      </trkpt>
      <trkpt lat="59.237187377179" lon="17.947574479715">
        <ele>26.8</ele>
        <time>2015-07-11T13:59:16Z</time>
      </trkpt>
      <trkpt lat="59.237025774147" lon="17.947436681279">
        <ele>26.8</ele>
        <time>2015-07-11T13:59:19Z</time>
      </trkpt>
      <trkpt lat="59.236924520795" lon="17.947285387984">
        <ele>26.8</ele>
        <time>2015-07-11T13:59:21Z</time>
      </trkpt>
      <trkpt lat="59.236810862231" lon="17.947121605658">
        <ele>26.8</ele>
        <time>2015-07-11T13:59:23Z</time>
      </trkpt>
      <trkpt lat="59.236591256451" lon="17.94696888744">
        <ele>26.8</ele>
        <time>2015-07-11T13:59:26Z</time>
      </trkpt>
      <trkpt lat="59.236512466591" lon="17.946935276021">
        <ele>26.8</ele>
        <time>2015-07-11T13:59:27Z</time>
      </trkpt>
      <trkpt lat="59.236440717527" lon="17.946916668203">
        <ele>26.8</ele>
        <time>2015-07-11T13:59:28Z</time>
      </trkpt>
      <trkpt lat="59.236300236883" lon="17.94692278699">
        <ele>26.8</ele>
        <time>2015-07-11T13:59:30Z</time>
      </trkpt>
      <trkpt lat="59.236160091515" lon="17.946957488056">
        <ele>26.8</ele>
        <time>2015-07-11T13:59:32Z</time>
      </trkpt>
      <trkpt lat="59.235958339182" lon="17.947092185189">
        <ele>26.8</ele>
        <time>2015-07-11T13:59:35Z</time>
      </trkpt>
      <trkpt lat="59.235845602627" lon="17.947214309472">
        <ele>26.8</ele>
        <time>2015-07-11T13:59:37Z</time>
      </trkpt>
      <trkpt lat="59.235806626792" lon="17.947268037451">
        <ele>26.8</ele>
        <time>2015-07-11T13:59:38Z</time>
      </trkpt>
      <trkpt lat="59.235769243518" lon="17.947321262516">
        <ele>26.8</ele>
        <time>2015-07-11T13:59:39Z</time>
      </trkpt>
      <trkpt lat="59.235615603291" lon="17.947525697057">
        <ele>26.8</ele>
        <time>2015-07-11T13:59:44Z</time>
      </trkpt>
      <trkpt lat="59.235578471474" lon="17.947570288765">
        <ele>26.8</ele>
        <time>2015-07-11T13:59:45Z</time>
      </trkpt>
      <trkpt lat="59.235486102936" lon="17.947676738895">
        <ele>26</ele>
        <time>2015-07-11T13:59:47Z</time>
      </trkpt>
      <trkpt lat="59.235431452948" lon="17.947725353915">
        <ele>25.4</ele>
        <time>2015-07-11T13:59:48Z</time>
      </trkpt>
      <trkpt lat="59.235373114924" lon="17.94776097699">
        <ele>24.6</ele>
        <time>2015-07-11T13:59:49Z</time>
      </trkpt>
      <trkpt lat="59.235307652285" lon="17.947776483505">
        <ele>23.8</ele>
        <time>2015-07-11T13:59:50Z</time>
      </trkpt>
      <trkpt lat="59.23523431066" lon="17.947780171541">
        <ele>23.2</ele>
        <time>2015-07-11T13:59:51Z</time>
      </trkpt>
      <trkpt lat="59.235069271049" lon="17.947793414943">
        <ele>22.6</ele>
        <time>2015-07-11T13:59:53Z</time>
      </trkpt>
      <trkpt lat="59.234984278583" lon="17.94780456287">
        <ele>22</ele>
        <time>2015-07-11T13:59:54Z</time>
      </trkpt>
      <trkpt lat="59.234899956669" lon="17.947821494308">
        <ele>21.4</ele>
        <time>2015-07-11T13:59:55Z</time>
      </trkpt>
      <trkpt lat="59.234817562592" lon="17.947840185945">
        <ele>20.8</ele>
        <time>2015-07-11T13:59:56Z</time>
      </trkpt>
      <trkpt lat="59.234739359465" lon="17.947856195374">
        <ele>20.2</ele>
        <time>2015-07-11T13:59:57Z</time>
      </trkpt>
      <trkpt lat="59.2343340946" lon="17.94794956974">
        <ele>20.2</ele>
        <time>2015-07-11T14:00:02Z</time>
      </trkpt>
      <trkpt lat="59.234156314501" lon="17.94795878983">
        <ele>19.8</ele>
        <time>2015-07-11T14:00:04Z</time>
      </trkpt>
      <trkpt lat="59.234064867972" lon="17.947949737378">
        <ele>19.4</ele>
        <time>2015-07-11T14:00:05Z</time>
      </trkpt>
      <trkpt lat="59.233971828882" lon="17.947945630247">
        <ele>19</ele>
        <time>2015-07-11T14:00:06Z</time>
      </trkpt>
      <trkpt lat="59.233875772308" lon="17.947941942211">
        <ele>18.6</ele>
        <time>2015-07-11T14:00:07Z</time>
      </trkpt>
      <trkpt lat="59.233785666883" lon="17.947934566139">
        <ele>18</ele>
        <time>2015-07-11T14:00:08Z</time>
      </trkpt>
      <trkpt lat="59.233361123648" lon="17.947957700183">
        <ele>18</ele>
        <time>2015-07-11T14:00:13Z</time>
      </trkpt>
      <trkpt lat="59.232912105265" lon="17.948102790872">
        <ele>18</ele>
        <time>2015-07-11T14:00:18Z</time>
      </trkpt>
      <trkpt lat="59.232747652387" lon="17.948194740315">
        <ele>18</ele>
        <time>2015-07-11T14:00:20Z</time>
      </trkpt>
      <trkpt lat="59.232514551748" lon="17.948357349175">
        <ele>18</ele>
        <time>2015-07-11T14:00:23Z</time>
      </trkpt>
      <trkpt lat="59.232145664329" lon="17.948654068435">
        <ele>18</ele>
        <time>2015-07-11T14:00:28Z</time>
      </trkpt>
      <trkpt lat="59.231669404771" lon="17.948939220673">
        <ele>18</ele>
        <time>2015-07-11T14:00:34Z</time>
      </trkpt>
      <trkpt lat="59.231523056797" lon="17.949040138749">
        <ele>18</ele>
        <time>2015-07-11T14:00:36Z</time>
      </trkpt>
      <trkpt lat="59.231375535357" lon="17.949133596934">
        <ele>18</ele>
        <time>2015-07-11T14:00:38Z</time>
      </trkpt>
      <trkpt lat="59.231178644526" lon="17.949226468386">
        <ele>18</ele>
        <time>2015-07-11T14:00:41Z</time>
      </trkpt>
      <trkpt lat="59.231119552131" lon="17.94922780949">
        <ele>18</ele>
        <time>2015-07-11T14:00:42Z</time>
      </trkpt>
      <trkpt lat="59.231040762271" lon="17.949118341876">
        <ele>18</ele>
        <time>2015-07-11T14:00:45Z</time>
      </trkpt>
      <trkpt lat="59.23100061297" lon="17.949016082696">
        <ele>18</ele>
        <time>2015-07-11T14:00:47Z</time>
      </trkpt>
      <trkpt lat="59.230911261916" lon="17.948803182436">
        <ele>18</ele>
        <time>2015-07-11T14:00:50Z</time>
      </trkpt>
      <trkpt lat="59.230793663859" lon="17.948305381395">
        <ele>18</ele>
        <time>2015-07-11T14:00:54Z</time>
      </trkpt>
      <trkpt lat="59.230670198472" lon="17.947623597649">
        <ele>18</ele>
        <time>2015-07-11T14:00:59Z</time>
      </trkpt>
      <trkpt lat="59.230653853767" lon="17.947472136716">
        <ele>18</ele>
        <time>2015-07-11T14:01:00Z</time>
      </trkpt>
      <trkpt lat="59.230633150474" lon="17.946767554202">
        <ele>18</ele>
        <time>2015-07-11T14:01:05Z</time>
      </trkpt>
      <trkpt lat="59.230689979756" lon="17.946082752972">
        <ele>18</ele>
        <time>2015-07-11T14:01:10Z</time>
      </trkpt>
      <trkpt lat="59.230783186484" lon="17.945246993723">
        <ele>18</ele>
        <time>2015-07-11T14:01:16Z</time>
      </trkpt>
      <trkpt lat="59.230875219746" lon="17.944382400738">
        <ele>18.4</ele>
        <time>2015-07-11T14:01:22Z</time>
      </trkpt>
      <trkpt lat="59.230881506171" lon="17.944237729144">
        <ele>18.8</ele>
        <time>2015-07-11T14:01:23Z</time>
      </trkpt>
      <trkpt lat="59.230874968289" lon="17.944105714219">
        <ele>19.2</ele>
        <time>2015-07-11T14:01:24Z</time>
      </trkpt>
      <trkpt lat="59.230870861158" lon="17.943970346534">
        <ele>19.6</ele>
        <time>2015-07-11T14:01:25Z</time>
      </trkpt>
      <trkpt lat="59.230865999656" lon="17.943833386288">
        <ele>20</ele>
        <time>2015-07-11T14:01:26Z</time>
      </trkpt>
      <trkpt lat="59.230860970516" lon="17.943690977807">
        <ele>20</ele>
        <time>2015-07-11T14:01:27Z</time>
      </trkpt>
      <trkpt lat="59.230859461774" lon="17.94354236672">
        <ele>20</ele>
        <time>2015-07-11T14:01:28Z</time>
      </trkpt>
      <trkpt lat="59.230873878642" lon="17.942643994678">
        <ele>20</ele>
        <time>2015-07-11T14:01:34Z</time>
      </trkpt>
      <trkpt lat="59.230906819509" lon="17.941964138769">
        <ele>20</ele>
        <time>2015-07-11T14:01:39Z</time>
      </trkpt>
      <trkpt lat="59.230944957154" lon="17.941582175586">
        <ele>20</ele>
        <time>2015-07-11T14:01:42Z</time>
      </trkpt>
      <trkpt lat="59.230954596339" lon="17.941293838226">
        <ele>20</ele>
        <time>2015-07-11T14:01:44Z</time>
      </trkpt>
      <trkpt lat="59.230991895794" lon="17.940488253817">
        <ele>20</ele>
        <time>2015-07-11T14:01:49Z</time>
      </trkpt>
      <trkpt lat="59.23099726021" lon="17.939485946215">
        <ele>19.6</ele>
        <time>2015-07-11T14:01:55Z</time>
      </trkpt>
      <trkpt lat="59.23099306926" lon="17.939323169717">
        <ele>19.2</ele>
        <time>2015-07-11T14:01:56Z</time>
      </trkpt>
      <trkpt lat="59.230989465043" lon="17.939166512006">
        <ele>18.8</ele>
        <time>2015-07-11T14:01:57Z</time>
      </trkpt>
      <trkpt lat="59.230986950473" lon="17.939014296702">
        <ele>18.4</ele>
        <time>2015-07-11T14:01:58Z</time>
      </trkpt>
      <trkpt lat="59.23099223107" lon="17.938866607624">
        <ele>17.8</ele>
        <time>2015-07-11T14:01:59Z</time>
      </trkpt>
      <trkpt lat="59.230938167815" lon="17.93821483108">
        <ele>17.8</ele>
        <time>2015-07-11T14:02:04Z</time>
      </trkpt>
      <trkpt lat="59.230920314368" lon="17.938083654345">
        <ele>17.8</ele>
        <time>2015-07-11T14:02:05Z</time>
      </trkpt>
      <trkpt lat="59.230840267223" lon="17.937868910067">
        <ele>17.8</ele>
        <time>2015-07-11T14:02:07Z</time>
      </trkpt>
      <trkpt lat="59.230610938439" lon="17.937764806869">
        <ele>17.8</ele>
        <time>2015-07-11T14:02:10Z</time>
      </trkpt>
      <trkpt lat="59.230265101245" lon="17.937640168016">
        <ele>17.4</ele>
        <time>2015-07-11T14:02:14Z</time>
      </trkpt>
      <trkpt lat="59.230173654716" lon="17.93761049609">
        <ele>17</ele>
        <time>2015-07-11T14:02:15Z</time>
      </trkpt>
      <trkpt lat="59.230084136024" lon="17.937571771712">
        <ele>16.6</ele>
        <time>2015-07-11T14:02:16Z</time>
      </trkpt>
      <trkpt lat="59.229997550997" lon="17.937535561904">
        <ele>16.2</ele>
        <time>2015-07-11T14:02:17Z</time>
      </trkpt>
      <trkpt lat="59.229910630694" lon="17.937492898033">
        <ele>15.8</ele>
        <time>2015-07-11T14:02:18Z</time>
      </trkpt>
      <trkpt lat="59.229567978622" lon="17.937368426818">
        <ele>15.8</ele>
        <time>2015-07-11T14:02:22Z</time>
      </trkpt>
      <trkpt lat="59.229250053155" lon="17.93725845629">
        <ele>16.2</ele>
        <time>2015-07-11T14:02:26Z</time>
      </trkpt>
      <trkpt lat="59.229173023494" lon="17.937229454916">
        <ele>16.6</ele>
        <time>2015-07-11T14:02:27Z</time>
      </trkpt>
      <trkpt lat="59.229100855335" lon="17.937195843497">
        <ele>17</ele>
        <time>2015-07-11T14:02:28Z</time>
      </trkpt>
      <trkpt lat="59.229026843158" lon="17.937171116892">
        <ele>17.4</ele>
        <time>2015-07-11T14:02:29Z</time>
      </trkpt>
      <trkpt lat="59.228949059126" lon="17.937146557925">
        <ele>17.8</ele>
        <time>2015-07-11T14:02:30Z</time>
      </trkpt>
      <trkpt lat="59.228798939297" lon="17.937094254869">
        <ele>18.4</ele>
        <time>2015-07-11T14:02:32Z</time>
      </trkpt>
      <trkpt lat="59.228720903808" lon="17.937075144137">
        <ele>18.8</ele>
        <time>2015-07-11T14:02:33Z</time>
      </trkpt>
      <trkpt lat="59.228638509731" lon="17.937041197442">
        <ele>19.2</ele>
        <time>2015-07-11T14:02:34Z</time>
      </trkpt>
      <trkpt lat="59.228560306604" lon="17.937010268231">
        <ele>19.8</ele>
        <time>2015-07-11T14:02:35Z</time>
      </trkpt>
      <trkpt lat="59.228480678554" lon="17.936979925753">
        <ele>20.2</ele>
        <time>2015-07-11T14:02:36Z</time>
      </trkpt>
      <trkpt lat="59.228403565074" lon="17.936936256054">
        <ele>20.6</ele>
        <time>2015-07-11T14:02:37Z</time>
      </trkpt>
      <trkpt lat="59.228331564553" lon="17.936902141721">
        <ele>21.2</ele>
        <time>2015-07-11T14:02:38Z</time>
      </trkpt>
      <trkpt lat="59.228254283435" lon="17.936865764275">
        <ele>21.6</ele>
        <time>2015-07-11T14:02:39Z</time>
      </trkpt>
      <trkpt lat="59.228179013973" lon="17.936823770956">
        <ele>22</ele>
        <time>2015-07-11T14:02:40Z</time>
      </trkpt>
      <trkpt lat="59.228104750339" lon="17.936788902252">
        <ele>22.4</ele>
        <time>2015-07-11T14:02:41Z</time>
      </trkpt>
      <trkpt lat="59.228038365691" lon="17.936746573657">
        <ele>23</ele>
        <time>2015-07-11T14:02:42Z</time>
      </trkpt>
      <trkpt lat="59.227975333803" lon="17.936697120447">
        <ele>23.4</ele>
        <time>2015-07-11T14:02:43Z</time>
      </trkpt>
      <trkpt lat="59.227916409046" lon="17.936640542622">
        <ele>24</ele>
        <time>2015-07-11T14:02:44Z</time>
      </trkpt>
      <trkpt lat="59.227854718262" lon="17.936584802987">
        <ele>24.4</ele>
        <time>2015-07-11T14:02:45Z</time>
      </trkpt>
      <trkpt lat="59.227796966971" lon="17.936537109976">
        <ele>24.8</ele>
        <time>2015-07-11T14:02:46Z</time>
      </trkpt>
      <trkpt lat="59.227743322811" lon="17.936465444731">
        <ele>25.2</ele>
        <time>2015-07-11T14:02:47Z</time>
      </trkpt>
      <trkpt lat="59.227705855718" lon="17.93637081308">
        <ele>25.6</ele>
        <time>2015-07-11T14:02:48Z</time>
      </trkpt>
      <trkpt lat="59.227701580949" lon="17.936242737648">
        <ele>26</ele>
        <time>2015-07-11T14:02:49Z</time>
      </trkpt>
      <trkpt lat="59.227702167682" lon="17.93611516513">
        <ele>26.4</ele>
        <time>2015-07-11T14:02:50Z</time>
      </trkpt>
      <trkpt lat="59.227715411084" lon="17.935985832413">
        <ele>27</ele>
        <time>2015-07-11T14:02:51Z</time>
      </trkpt>
      <trkpt lat="59.2277291574" lon="17.935866725614">
        <ele>27</ele>
        <time>2015-07-11T14:02:52Z</time>
      </trkpt>
      <trkpt lat="59.227749693055" lon="17.935637899744">
        <ele>27</ele>
        <time>2015-07-11T14:02:54Z</time>
      </trkpt>
      <trkpt lat="59.227753884005" lon="17.935434387212">
        <ele>27.4</ele>
        <time>2015-07-11T14:02:56Z</time>
      </trkpt>
      <trkpt lat="59.22775849405" lon="17.935334391145">
        <ele>27.8</ele>
        <time>2015-07-11T14:02:57Z</time>
      </trkpt>
      <trkpt lat="59.227758074955" lon="17.935240597684">
        <ele>28.2</ele>
        <time>2015-07-11T14:02:58Z</time>
      </trkpt>
      <trkpt lat="59.227757488222" lon="17.935147642413">
        <ele>28.6</ele>
        <time>2015-07-11T14:02:59Z</time>
      </trkpt>
      <trkpt lat="59.227759248421" lon="17.935052424029">
        <ele>29</ele>
        <time>2015-07-11T14:03:00Z</time>
      </trkpt>
      <trkpt lat="59.227763607009" lon="17.934868106048">
        <ele>29.4</ele>
        <time>2015-07-11T14:03:02Z</time>
      </trkpt>
      <trkpt lat="59.227768049416" lon="17.934771211284">
        <ele>29.8</ele>
        <time>2015-07-11T14:03:03Z</time>
      </trkpt>
      <trkpt lat="59.227771569814" lon="17.934666940448">
        <ele>30.4</ele>
        <time>2015-07-11T14:03:04Z</time>
      </trkpt>
      <trkpt lat="59.22777609604" lon="17.93456199906">
        <ele>30.8</ele>
        <time>2015-07-11T14:03:05Z</time>
      </trkpt>
      <trkpt lat="59.227781460456" lon="17.934459404604">
        <ele>31.2</ele>
        <time>2015-07-11T14:03:06Z</time>
      </trkpt>
      <trkpt lat="59.227791434917" lon="17.934356055777">
        <ele>31.2</ele>
        <time>2015-07-11T14:03:07Z</time>
      </trkpt>
      <trkpt lat="59.227801996111" lon="17.934248180724">
        <ele>31.6</ele>
        <time>2015-07-11T14:03:08Z</time>
      </trkpt>
      <trkpt lat="59.227812305848" lon="17.934144496621">
        <ele>32</ele>
        <time>2015-07-11T14:03:09Z</time>
      </trkpt>
      <trkpt lat="59.227823789051" lon="17.934043075631">
        <ele>32.4</ele>
        <time>2015-07-11T14:03:10Z</time>
      </trkpt>
      <trkpt lat="59.227838541195" lon="17.933946097048">
        <ele>32.8</ele>
        <time>2015-07-11T14:03:11Z</time>
      </trkpt>
      <trkpt lat="59.227853963891" lon="17.933839311642">
        <ele>33.2</ele>
        <time>2015-07-11T14:03:12Z</time>
      </trkpt>
      <trkpt lat="59.227894783744" lon="17.933527085867">
        <ele>33.2</ele>
        <time>2015-07-11T14:03:15Z</time>
      </trkpt>
      <trkpt lat="59.22793116119" lon="17.933188708564">
        <ele>33.2</ele>
        <time>2015-07-11T14:03:18Z</time>
      </trkpt>
      <trkpt lat="59.227970053206" lon="17.932847229958">
        <ele>33.2</ele>
        <time>2015-07-11T14:03:21Z</time>
      </trkpt>
      <trkpt lat="59.228001233874" lon="17.932467865164">
        <ele>33.2</ele>
        <time>2015-07-11T14:03:24Z</time>
      </trkpt>
      <trkpt lat="59.2280309058" lon="17.932076178977">
        <ele>33.2</ele>
        <time>2015-07-11T14:03:27Z</time>
      </trkpt>
      <trkpt lat="59.22806275702" lon="17.93149841461">
        <ele>33.2</ele>
        <time>2015-07-11T14:03:31Z</time>
      </trkpt>
      <trkpt lat="59.228078095897" lon="17.931354665025">
        <ele>33.2</ele>
        <time>2015-07-11T14:03:32Z</time>
      </trkpt>
      <trkpt lat="59.228165351476" lon="17.930284799309">
        <ele>33.2</ele>
        <time>2015-07-11T14:03:39Z</time>
      </trkpt>
      <trkpt lat="59.228232239038" lon="17.929357006798">
        <ele>33.2</ele>
        <time>2015-07-11T14:03:45Z</time>
      </trkpt>
      <trkpt lat="59.228261575688" lon="17.92888158543">
        <ele>33.6</ele>
        <time>2015-07-11T14:03:48Z</time>
      </trkpt>
      <trkpt lat="59.228269957588" lon="17.928721658778">
        <ele>34.2</ele>
        <time>2015-07-11T14:03:49Z</time>
      </trkpt>
      <trkpt lat="59.228280602601" lon="17.928562067402">
        <ele>34.6</ele>
        <time>2015-07-11T14:03:50Z</time>
      </trkpt>
      <trkpt lat="59.228290074148" lon="17.928410941745">
        <ele>35</ele>
        <time>2015-07-11T14:03:51Z</time>
      </trkpt>
      <trkpt lat="59.228298036953" lon="17.928260738097">
        <ele>35.4</ele>
        <time>2015-07-11T14:03:52Z</time>
      </trkpt>
      <trkpt lat="59.228308430509" lon="17.928101901092">
        <ele>35.4</ele>
        <time>2015-07-11T14:03:53Z</time>
      </trkpt>
      <trkpt lat="59.228374060786" lon="17.927022982924">
        <ele>35.4</ele>
        <time>2015-07-11T14:04:00Z</time>
      </trkpt>
      <trkpt lat="59.22837791646" lon="17.926404901618">
        <ele>35.4</ele>
        <time>2015-07-11T14:04:04Z</time>
      </trkpt>
      <trkpt lat="59.228365008334" lon="17.926255703798">
        <ele>35.4</ele>
        <time>2015-07-11T14:04:05Z</time>
      </trkpt>
      <trkpt lat="59.228228802459" lon="17.92535783467">
        <ele>35.4</ele>
        <time>2015-07-11T14:04:11Z</time>
      </trkpt>
      <trkpt lat="59.228128806392" lon="17.924565577482">
        <ele>35.4</ele>
        <time>2015-07-11T14:04:16Z</time>
      </trkpt>
      <trkpt lat="59.227980530581" lon="17.923695452443">
        <ele>35.4</ele>
        <time>2015-07-11T14:04:22Z</time>
      </trkpt>
      <trkpt lat="59.227946080972" lon="17.923569640124">
        <ele>35.4</ele>
        <time>2015-07-11T14:04:23Z</time>
      </trkpt>
      <trkpt lat="59.227746927028" lon="17.923303095704">
        <ele>35.4</ele>
        <time>2015-07-11T14:04:26Z</time>
      </trkpt>
      <trkpt lat="59.227331184788" lon="17.922924736738">
        <ele>35.8</ele>
        <time>2015-07-11T14:04:31Z</time>
      </trkpt>
      <trkpt lat="59.227259603362" lon="17.922831278553">
        <ele>36.2</ele>
        <time>2015-07-11T14:04:32Z</time>
      </trkpt>
      <trkpt lat="59.227189614497" lon="17.922744442069">
        <ele>36.8</ele>
        <time>2015-07-11T14:04:33Z</time>
      </trkpt>
      <trkpt lat="59.227121804926" lon="17.922648469314">
        <ele>37.6</ele>
        <time>2015-07-11T14:04:34Z</time>
      </trkpt>
      <trkpt lat="59.22705944359" lon="17.922546713048">
        <ele>38</ele>
        <time>2015-07-11T14:04:35Z</time>
      </trkpt>
      <trkpt lat="59.226985850508" lon="17.922442358393">
        <ele>38.4</ele>
        <time>2015-07-11T14:04:36Z</time>
      </trkpt>
      <trkpt lat="59.226916029281" lon="17.92232274868">
        <ele>39</ele>
        <time>2015-07-11T14:04:37Z</time>
      </trkpt>
      <trkpt lat="59.226849644633" lon="17.922194924705">
        <ele>39.4</ele>
        <time>2015-07-11T14:04:38Z</time>
      </trkpt>
      <trkpt lat="59.226787367116" lon="17.922053522052">
        <ele>39.8</ele>
        <time>2015-07-11T14:04:39Z</time>
      </trkpt>
      <trkpt lat="59.226476482445" lon="17.92137224122">
        <ele>39.8</ele>
        <time>2015-07-11T14:04:44Z</time>
      </trkpt>
      <trkpt lat="59.226426191045" lon="17.921222959581">
        <ele>39.8</ele>
        <time>2015-07-11T14:04:45Z</time>
      </trkpt>
      <trkpt lat="59.226217314097" lon="17.920431372945">
        <ele>39.8</ele>
        <time>2015-07-11T14:04:50Z</time>
      </trkpt>
      <trkpt lat="59.226010532624" lon="17.919644647811">
        <ele>40.2</ele>
        <time>2015-07-11T14:04:55Z</time>
      </trkpt>
      <trkpt lat="59.22596560564" lon="17.919491007584">
        <ele>40.6</ele>
        <time>2015-07-11T14:04:56Z</time>
      </trkpt>
      <trkpt lat="59.225920259561" lon="17.91933376314">
        <ele>41</ele>
        <time>2015-07-11T14:04:57Z</time>
      </trkpt>
      <trkpt lat="59.225873907654" lon="17.919181631655">
        <ele>41.8</ele>
        <time>2015-07-11T14:04:58Z</time>
      </trkpt>
      <trkpt lat="59.225817748924" lon="17.919050119644">
        <ele>41.8</ele>
        <time>2015-07-11T14:04:59Z</time>
      </trkpt>
      <trkpt lat="59.225688332388" lon="17.918828586027">
        <ele>41.8</ele>
        <time>2015-07-11T14:05:01Z</time>
      </trkpt>
      <trkpt lat="59.225429750773" lon="17.91855424644">
        <ele>41.8</ele>
        <time>2015-07-11T14:05:05Z</time>
      </trkpt>
      <trkpt lat="59.225085841416" lon="17.918390128838">
        <ele>41.8</ele>
        <time>2015-07-11T14:05:09Z</time>
      </trkpt>
      <trkpt lat="59.224521655727" lon="17.918147556652">
        <ele>42.4</ele>
        <time>2015-07-11T14:05:15Z</time>
      </trkpt>
      <trkpt lat="59.224427024076" lon="17.918109586645">
        <ele>42.8</ele>
        <time>2015-07-11T14:05:16Z</time>
      </trkpt>
      <trkpt lat="59.224341863972" lon="17.918066168403">
        <ele>43.2</ele>
        <time>2015-07-11T14:05:17Z</time>
      </trkpt>
      <trkpt lat="59.224258044972" lon="17.918021828152">
        <ele>43.6</ele>
        <time>2015-07-11T14:05:18Z</time>
      </trkpt>
      <trkpt lat="59.224170621755" lon="17.917980421566">
        <ele>44.2</ele>
        <time>2015-07-11T14:05:19Z</time>
      </trkpt>
      <trkpt lat="59.224002061746" lon="17.917882185698">
        <ele>44.2</ele>
        <time>2015-07-11T14:05:21Z</time>
      </trkpt>
      <trkpt lat="59.223817157032" lon="17.917806245684">
        <ele>43.6</ele>
        <time>2015-07-11T14:05:23Z</time>
      </trkpt>
      <trkpt lat="59.223720597544" lon="17.917775400292">
        <ele>42.8</ele>
        <time>2015-07-11T14:05:24Z</time>
      </trkpt>
      <trkpt lat="59.22361699726" lon="17.917777747224">
        <ele>42</ele>
        <time>2015-07-11T14:05:25Z</time>
      </trkpt>
      <trkpt lat="59.223516833555" lon="17.917782524907">
        <ele>41</ele>
        <time>2015-07-11T14:05:26Z</time>
      </trkpt>
      <trkpt lat="59.223423207732" lon="17.917791158264">
        <ele>40</ele>
        <time>2015-07-11T14:05:27Z</time>
      </trkpt>
      <trkpt lat="59.223339304913" lon="17.91778394983">
        <ele>39.2</ele>
        <time>2015-07-11T14:05:28Z</time>
      </trkpt>
      <trkpt lat="59.223263616356" lon="17.917760229053">
        <ele>38.2</ele>
        <time>2015-07-11T14:05:29Z</time>
      </trkpt>
      <trkpt lat="59.223205362151" lon="17.917701639572">
        <ele>37.4</ele>
        <time>2015-07-11T14:05:30Z</time>
      </trkpt>
      <trkpt lat="59.22317443294" lon="17.917622011522">
        <ele>36.6</ele>
        <time>2015-07-11T14:05:31Z</time>
      </trkpt>
      <trkpt lat="59.223158172054" lon="17.917528385699">
        <ele>35.6</ele>
        <time>2015-07-11T14:05:32Z</time>
      </trkpt>
      <trkpt lat="59.223136211476" lon="17.917432999677">
        <ele>35.6</ele>
        <time>2015-07-11T14:05:33Z</time>
      </trkpt>
      <trkpt lat="59.223090194845" lon="17.917249016972">
        <ele>35.6</ele>
        <time>2015-07-11T14:05:35Z</time>
      </trkpt>
      <trkpt lat="59.222953402237" lon="17.916667313112">
        <ele>35.6</ele>
        <time>2015-07-11T14:05:40Z</time>
      </trkpt>
      <trkpt lat="59.22276539622" lon="17.91619893254">
        <ele>35.6</ele>
        <time>2015-07-11T14:05:44Z</time>
      </trkpt>
      <trkpt lat="59.222596417116" lon="17.915858543581">
        <ele>35.6</ele>
        <time>2015-07-11T14:05:47Z</time>
      </trkpt>
      <trkpt lat="59.222534977789" lon="17.915730049054">
        <ele>35.6</ele>
        <time>2015-07-11T14:05:48Z</time>
      </trkpt>
      <trkpt lat="59.222401957036" lon="17.915475826027">
        <ele>35.2</ele>
        <time>2015-07-11T14:05:50Z</time>
      </trkpt>
      <trkpt lat="59.222335237112" lon="17.915341883265">
        <ele>34.8</ele>
        <time>2015-07-11T14:05:51Z</time>
      </trkpt>
      <trkpt lat="59.222264326238" lon="17.915211293263">
        <ele>34.4</ele>
        <time>2015-07-11T14:05:52Z</time>
      </trkpt>
      <trkpt lat="59.222187967129" lon="17.915069555334">
        <ele>34</ele>
        <time>2015-07-11T14:05:53Z</time>
      </trkpt>
      <trkpt lat="59.222117056255" lon="17.914938210961">
        <ele>33.4</ele>
        <time>2015-07-11T14:05:54Z</time>
      </trkpt>
      <trkpt lat="59.221910023325" lon="17.914555409588">
        <ele>33</ele>
        <time>2015-07-11T14:05:57Z</time>
      </trkpt>
      <trkpt lat="59.22184673998" lon="17.914421885921">
        <ele>32.6</ele>
        <time>2015-07-11T14:05:58Z</time>
      </trkpt>
      <trkpt lat="59.221785635929" lon="17.914293642851">
        <ele>32.2</ele>
        <time>2015-07-11T14:05:59Z</time>
      </trkpt>
      <trkpt lat="59.221723861326" lon="17.914169087817">
        <ele>31.8</ele>
        <time>2015-07-11T14:06:00Z</time>
      </trkpt>
      <trkpt lat="59.221665271845" lon="17.914029277725">
        <ele>31.4</ele>
        <time>2015-07-11T14:06:01Z</time>
      </trkpt>
      <trkpt lat="59.22156678452" lon="17.913751753016">
        <ele>31.4</ele>
        <time>2015-07-11T14:06:03Z</time>
      </trkpt>
      <trkpt lat="59.221353297527" lon="17.913431899712">
        <ele>31.4</ele>
        <time>2015-07-11T14:06:06Z</time>
      </trkpt>
      <trkpt lat="59.221233520176" lon="17.913134677538">
        <ele>31.4</ele>
        <time>2015-07-11T14:06:08Z</time>
      </trkpt>
      <trkpt lat="59.221114581015" lon="17.912828822007">
        <ele>31</ele>
        <time>2015-07-11T14:06:10Z</time>
      </trkpt>
      <trkpt lat="59.221053896059" lon="17.912672080477">
        <ele>30.6</ele>
        <time>2015-07-11T14:06:11Z</time>
      </trkpt>
      <trkpt lat="59.220991450904" lon="17.91251173473">
        <ele>30.2</ele>
        <time>2015-07-11T14:06:12Z</time>
      </trkpt>
      <trkpt lat="59.220928838111" lon="17.912348622956">
        <ele>29.4</ele>
        <time>2015-07-11T14:06:13Z</time>
      </trkpt>
      <trkpt lat="59.220609320083" lon="17.911509091852">
        <ele>29.4</ele>
        <time>2015-07-11T14:06:18Z</time>
      </trkpt>
      <trkpt lat="59.220544779453" lon="17.911342208223">
        <ele>29</ele>
        <time>2015-07-11T14:06:19Z</time>
      </trkpt>
      <trkpt lat="59.220482418117" lon="17.911171971834">
        <ele>28.6</ele>
        <time>2015-07-11T14:06:20Z</time>
      </trkpt>
      <trkpt lat="59.220418128944" lon="17.91100886006">
        <ele>28.2</ele>
        <time>2015-07-11T14:06:21Z</time>
      </trkpt>
      <trkpt lat="59.220353839771" lon="17.910850609788">
        <ele>27.8</ele>
        <time>2015-07-11T14:06:22Z</time>
      </trkpt>
      <trkpt lat="59.220290975521" lon="17.910696382828">
        <ele>27.4</ele>
        <time>2015-07-11T14:06:23Z</time>
      </trkpt>
      <trkpt lat="59.220228278909" lon="17.910533271054">
        <ele>27.4</ele>
        <time>2015-07-11T14:06:24Z</time>
      </trkpt>
      <trkpt lat="59.219889147235" lon="17.909697763262">
        <ele>27.4</ele>
        <time>2015-07-11T14:06:30Z</time>
      </trkpt>
      <trkpt lat="59.219878083127" lon="17.909393835568">
        <ele>27.4</ele>
        <time>2015-07-11T14:06:32Z</time>
      </trkpt>
      <trkpt lat="59.2199507542" lon="17.909172721046">
        <ele>27.4</ele>
        <time>2015-07-11T14:06:34Z</time>
      </trkpt>
      <trkpt lat="59.220216125154" lon="17.908772988235">
        <ele>26.4</ele>
        <time>2015-07-11T14:06:38Z</time>
      </trkpt>
      <trkpt lat="59.220291562254" lon="17.908686319389">
        <ele>26</ele>
        <time>2015-07-11T14:06:39Z</time>
      </trkpt>
      <trkpt lat="59.22034386531" lon="17.908613145402">
        <ele>25.6</ele>
        <time>2015-07-11T14:06:40Z</time>
      </trkpt>
      <trkpt lat="59.22036733463" lon="17.908517256466">
        <ele>25.2</ele>
        <time>2015-07-11T14:06:41Z</time>
      </trkpt>
      <trkpt lat="59.220329196985" lon="17.908334950141">
        <ele>25.2</ele>
        <time>2015-07-11T14:06:43Z</time>
      </trkpt>
      <trkpt lat="59.220284018544" lon="17.90826211143">
        <ele>25.6</ele>
        <time>2015-07-11T14:06:44Z</time>
      </trkpt>
      <trkpt lat="59.22023322423" lon="17.90817829243">
        <ele>26</ele>
        <time>2015-07-11T14:06:45Z</time>
      </trkpt>
      <trkpt lat="59.220176981681" lon="17.908079805105">
        <ele>26.4</ele>
        <time>2015-07-11T14:06:46Z</time>
      </trkpt>
      <trkpt lat="59.22012761229" lon="17.907983748531">
        <ele>26.8</ele>
        <time>2015-07-11T14:06:47Z</time>
      </trkpt>
      <trkpt lat="59.220078913451" lon="17.907882578998">
        <ele>27.2</ele>
        <time>2015-07-11T14:06:48Z</time>
      </trkpt>
      <trkpt lat="59.219863163345" lon="17.907371618374">
        <ele>27.2</ele>
        <time>2015-07-11T14:06:53Z</time>
      </trkpt>
      <trkpt lat="59.219732573343" lon="17.907074480019">
        <ele>27.2</ele>
        <time>2015-07-11T14:06:57Z</time>
      </trkpt>
      <trkpt lat="59.219730980782" lon="17.907029217759">
        <ele>27.2</ele>
        <time>2015-07-11T14:07:00Z</time>
      </trkpt>
      <trkpt lat="59.219738859768" lon="17.907025613542">
        <ele>27.2</ele>
        <time>2015-07-11T14:07:09Z</time>
      </trkpt>
      <trkpt lat="59.219756461758" lon="17.907053944364">
        <ele>27.2</ele>
        <time>2015-07-11T14:07:12Z</time>
      </trkpt>
      <trkpt lat="59.219778673793" lon="17.907059560237">
        <ele>27.2</ele>
        <time>2015-07-11T14:07:18Z</time>
      </trkpt>
      <trkpt lat="59.219778673793" lon="17.907059560237">
        <ele>27.2</ele>
        <time>2015-07-11T14:07:32Z</time>
      </trkpt>
    </trkseg>
  </trk>
</gpx>